Marlow, Georgia
Current Conditions -  °F | °C
As of 6:53 PM on Wednesday 28 Jan 2015 (Local Time) from KSAV Reporting Station
Few Clouds Few Clouds  
Wind Chill: 43°   Ceiling: Unl
Heat Index: 43°   Visibility: 10mi
Dew Point: 24°   Wind: 0mph
Humidity: 47%   Direction: NA
Pressure: 30.3"   Gusts: NA
Location:  32.3167°N, 81.3986°W
Report Text: KSAV 282353Z 00000KT 10SM FEW250 06/M04 A3030 RMK AO2 SLP261 T00611044 10117 20056 51017
Loading
Personal Weather Stations






























Interactive Weather Map New forecast layout! Learn more

10-Day Weather Forecast

Advertisements
Track Severe Weather on mobile